Strona główna
METAR-TAF:

METAR-TAF

Lotnisko :

Pohnpei, Mikronezja

Port lotniczy Pohnpei

Szerokość geograficzna: 06-59N, Długość geograficzna: 158-12E, wysokość: 2 m

Aktualna obserwacja pogody

Raport powstał 31 minut temu, godzina 04:56 UTC
Wiatr 6 kt od wschód
Temperatura 28°C
Wilgotność 84%
Ciśnienie 1006 hPa
Widzialność: 24.1 km
Przerywane chmury na wysokości 1800 ft, Cumulusy wypiętrznone.
Przerywane chmury na wysokości 13000 ft
Zachmurzenie całkowite na wysokości 30000 ft

METAR: PTPN 190456Z 10006KT 15SM BKN018TCU BKN130 OVC300 28/25 A2971 RMK TCU ALQDS

czas: 16:27 (05:27 UTC)

Prognoza

Raport powstał 5 godziny i 57 minut temu, godzina 23:30 UTC
Prognoza ważna od 19 godzina 00 UTC do 19 godzina 24 UTC
Wiatr 10 kt od wschodnio-północny wschód
Widzialność: 10 km
Rozproszone chmury na wysokości 1800 ft
Rozproszone chmury na wysokości 3000 ft
przelotny w pobliże

TAF: PTPN 182330Z 1900/1924 07010KT P6SM VCSH SCT018 SCT030

Obserwacja i prognoza pogody dla ponad 4000 lotnisk (raport METAR i TAF).

Dostępne stacje oznaczono żółtymi i czerwonymi punktami na mapie.

Najedź kursorem aby zobaczyć nazwę stacji.

Kliknij aby zobaczyć obserwacje i prognozy pogody.

Aby zmienić mapę: kliknij na zielony przycisk z czarnym krzyżykiem, aby powiększyć; na zielony przycisk z myślnikiem, aby pomniejszyć; na zielone strzałki, aby przejść do map sąsiednich.


METAR-TAF: